Time;durP1;ratioP1;P1;durP2;ratioP2;P2;SDS_P1;SDS_P2;PMS_P1;PMS_P2;Temp;Humidity;BMP_temperature;BMP_pressure;BME280_temperature;BME280_humidity;BME280_pressure;Samples;Min_cycle;Max_cycle;Signal;HPM_P1;HPM_P2
2022/07/08 00:01:22;;;;;;;7.28;2.20;;;;;;;14.63;67.12;102845.16;4986346;28;20296;-82
2022/07/08 00:03:48;;;;;;;13.68;2.90;;;;;;;14.55;67.47;102849.94;4969988;28;20353;-82
2022/07/08 00:06:13;;;;;;;11.73;2.45;;;;;;;14.47;67.26;102845.75;4970950;28;20505;-82
2022/07/08 00:08:38;;;;;;;6.22;2.05;;;;;;;14.35;68.02;102836.31;4969575;28;20317;-81
2022/07/08 00:11:03;;;;;;;7.38;2.17;;;;;;;14.36;68.29;102859.50;4970806;28;20030;-82
2022/07/08 00:13:29;;;;;;;11.00;2.50;;;;;;;14.31;68.33;102853.44;4971654;28;20089;-81
2022/07/08 00:15:54;;;;;;;13.40;2.60;;;;;;;14.32;68.50;102855.16;4971744;28;20030;-82
2022/07/08 00:18:19;;;;;;;6.07;2.20;;;;;;;14.36;68.84;102854.13;4966557;28;20038;-82
2022/07/08 00:20:45;;;;;;;9.07;2.33;;;;;;;14.33;68.55;102847.06;4971007;28;20031;-82
2022/07/08 00:23:10;;;;;;;6.78;2.58;;;;;;;14.35;68.85;102853.28;4970446;28;20027;-82
2022/07/08 00:25:36;;;;;;;9.55;2.30;;;;;;;14.30;68.26;102849.00;4975204;28;20440;-82
2022/07/08 00:28:01;;;;;;;8.48;1.98;;;;;;;14.24;68.40;102844.72;4968039;28;20027;-82
2022/07/08 00:30:26;;;;;;;7.25;1.95;;;;;;;14.22;68.61;102851.06;4969989;28;20074;-82
2022/07/08 00:32:51;;;;;;;8.90;2.53;;;;;;;14.23;68.64;102851.00;4967147;28;20090;-82
2022/07/08 00:35:17;;;;;;;8.35;2.50;;;;;;;14.23;68.66;102853.69;4967144;28;20126;-82
2022/07/08 00:37:42;;;;;;;6.70;2.00;;;;;;;14.24;68.83;102850.06;4967123;28;20031;-82
2022/07/08 00:40:08;;;;;;;6.57;2.40;;;;;;;14.21;68.63;102847.50;4969913;28;20022;-81
2022/07/08 00:42:34;;;;;;;9.32;2.30;;;;;;;14.19;69.42;102839.53;4968580;28;20457;-82
2022/07/08 00:44:59;;;;;;;6.07;2.20;;;;;;;14.19;69.38;102841.34;4968494;28;20038;-82
2022/07/08 00:47:24;;;;;;;8.13;2.40;;;;;;;14.21;69.11;102839.47;4958668;28;20038;-82
2022/07/08 00:49:50;;;;;;;9.60;2.50;;;;;;;14.20;68.81;102846.63;4969358;28;20136;-81
2022/07/08 00:52:16;;;;;;;7.88;2.30;;;;;;;14.17;68.92;102849.44;4967967;28;20034;-82
2022/07/08 00:54:41;;;;;;;7.38;2.28;;;;;;;14.16;69.32;102852.13;4967888;28;20477;-82
2022/07/08 00:57:07;;;;;;;6.05;1.98;;;;;;;14.11;69.62;102856.78;4967104;28;20026;-82
2022/07/08 00:59:32;;;;;;;8.23;2.60;;;;;;;14.10;69.94;102857.72;4969311;28;20081;-82
2022/07/08 01:01:58;;;;;;;6.05;2.28;;;;;;;14.10;70.10;102855.03;4968413;28;20022;-82
2022/07/08 01:04:24;;;;;;;5.80;2.33;;;;;;;14.08;70.33;102863.09;4965383;28;20101;-82
2022/07/08 01:06:49;;;;;;;9.30;2.38;;;;;;;14.09;70.29;102858.66;4966645;28;20101;-82
2022/07/08 01:09:14;;;;;;;11.82;2.50;;;;;;;14.05;70.37;102860.56;4968674;28;20052;-82
2022/07/08 01:11:43;;;;;;;8.00;2.42;;;;;;;13.99;70.46;102862.53;4968927;28;20038;-82
2022/07/08 01:14:09;;;;;;;8.40;3.28;;;;;;;13.93;70.58;102872.53;4967578;28;20069;-82
2022/07/08 01:16:36;;;;;;;7.38;2.47;;;;;;;13.97;70.89;102864.41;4963112;28;20022;-82
2022/07/08 01:19:01;;;;;;;7.32;2.42;;;;;;;13.88;71.20;102853.09;4968648;28;20524;-82
2022/07/08 01:21:26;;;;;;;8.40;2.38;;;;;;;13.84;71.45;102855.91;4968499;28;20069;-82
2022/07/08 01:23:52;;;;;;;8.75;3.22;;;;;;;13.79;71.69;102860.50;4968777;28;20022;-82
2022/07/08 01:26:17;;;;;;;9.45;3.20;;;;;;;13.71;71.56;102855.44;4963988;28;20022;-82
2022/07/08 01:28:43;;;;;;;10.57;2.75;;;;;;;13.58;72.24;102838.00;4967898;28;20034;-81
2022/07/08 01:31:09;;;;;;;10.98;2.80;;;;;;;13.55;72.68;102859.50;4967167;28;20190;-82
2022/07/08 01:33:34;;;;;;;9.65;3.67;;;;;;;13.44;72.87;102852.69;4963911;28;20480;-82
2022/07/08 01:36:00;;;;;;;5.93;2.50;;;;;;;13.40;73.41;102859.03;4967647;28;20030;-81
2022/07/08 01:38:25;;;;;;;6.28;2.50;;;;;;;13.30;73.68;102854.91;4967826;28;20035;-82
2022/07/08 01:40:50;;;;;;;11.88;3.00;;;;;;;13.23;73.89;102853.34;4968818;28;20477;-82
2022/07/08 01:43:15;;;;;;;11.20;2.72;;;;;;;13.15;74.08;102855.31;4964580;28;20030;-82
2022/07/08 01:45:41;;;;;;;9.70;2.70;;;;;;;13.16;74.32;102857.06;4967254;28;20035;-81
2022/07/08 01:48:07;;;;;;;6.25;2.67;;;;;;;13.13;74.63;102858.06;4966147;28;20027;-82
2022/07/08 01:50:33;;;;;;;10.38;2.92;;;;;;;13.13;74.68;102854.50;4968674;28;20057;-81
2022/07/08 01:52:58;;;;;;;9.02;2.90;;;;;;;13.10;74.88;102846.56;4963962;28;20552;-82
2022/07/08 01:55:24;;;;;;;7.55;2.70;;;;;;;13.03;74.66;102843.19;4969768;28;20106;-82
2022/07/08 01:57:49;;;;;;;8.98;2.92;;;;;;;13.00;75.23;102848.66;4963467;28;20469;-82
2022/07/08 02:00:15;;;;;;;9.20;3.03;;;;;;;12.96;75.33;102847.84;4967098;28;20062;-82
2022/07/08 02:02:40;;;;;;;11.55;3.10;;;;;;;12.90;75.42;102842.66;4968174;28;20106;-82
2022/07/08 02:05:06;;;;;;;9.10;3.30;;;;;;;12.87;75.64;102849.91;4982104;28;20047;-82
2022/07/08 02:07:32;;;;;;;10.32;3.00;;;;;;;12.86;75.82;102841.00;4968437;28;20050;-82
2022/07/08 02:09:58;;;;;;;6.20;2.40;;;;;;;12.83;75.86;102853.56;4969485;28;21781;-82
2022/07/08 02:12:23;;;;;;;10.30;3.20;;;;;;;12.82;75.99;102858.03;4976088;28;20022;-82
2022/07/08 02:14:50;;;;;;;8.23;2.85;;;;;;;12.78;76.24;102851.03;4973094;28;20022;-82
2022/07/08 02:17:17;;;;;;;9.77;2.70;;;;;;;12.75;76.38;102856.50;4972471;28;20500;-82
2022/07/08 02:19:43;;;;;;;7.88;2.50;;;;;;;12.71;76.26;102850.34;4974454;28;20027;-82
2022/07/08 02:22:09;;;;;;;10.80;2.80;;;;;;;12.67;76.62;102854.03;4991609;28;20040;-81
2022/07/08 02:24:35;;;;;;;7.85;2.80;;;;;;;12.67;76.90;102853.16;4991377;28;20081;-81
2022/07/08 02:27:01;;;;;;;12.45;3.28;;;;;;;12.63;76.94;102852.34;4973082;28;20037;-81
2022/07/08 02:29:26;;;;;;;9.80;3.58;;;;;;;12.59;76.87;102864.03;4970382;28;20087;-81
2022/07/08 02:31:51;;;;;;;11.63;3.20;;;;;;;12.56;77.34;102863.25;4969125;28;20109;-81
2022/07/08 02:34:17;;;;;;;9.55;3.30;;;;;;;12.54;77.08;102865.06;4966785;28;20485;-81
2022/07/08 02:36:42;;;;;;;9.98;2.67;;;;;;;12.53;77.42;102858.84;4964544;28;20038;-81
2022/07/08 02:39:07;;;;;;;11.10;3.35;;;;;;;12.48;77.46;102851.88;4968378;28;20066;-81
2022/07/08 02:41:33;;;;;;;10.40;3.30;;;;;;;12.46;77.73;102860.81;4969094;28;20089;-82
2022/07/08 02:43:58;;;;;;;8.73;2.90;;;;;;;12.38;77.90;102852.13;4967366;28;20816;-82
2022/07/08 02:46:24;;;;;;;9.05;2.80;;;;;;;12.37;78.13;102858.41;4962837;28;20042;-82
2022/07/08 02:48:49;;;;;;;7.55;2.90;;;;;;;12.32;78.68;102851.41;4966062;28;20122;-82
2022/07/08 02:51:14;;;;;;;11.35;3.05;;;;;;;12.31;78.77;102850.53;4966726;28;20121;-82
2022/07/08 02:53:40;;;;;;;10.77;3.10;;;;;;;12.34;78.74;102858.47;4967167;28;20047;-81
2022/07/08 02:56:05;;;;;;;7.97;2.92;;;;;;;12.27;78.91;102850.66;4967351;28;20034;-82
2022/07/08 02:58:31;;;;;;;10.80;3.05;;;;;;;12.28;79.10;102853.28;4966524;28;20058;-82
2022/07/08 03:00:56;;;;;;;7.25;2.70;;;;;;;12.30;78.66;102861.28;4966954;28;20035;-81
2022/07/08 03:03:22;;;;;;;9.35;3.20;;;;;;;12.26;78.83;102852.47;4969348;28;20035;-82
2022/07/08 03:05:47;;;;;;;5.57;2.83;;;;;;;12.19;79.21;102853.53;4982271;28;20079;-82
2022/07/08 03:08:12;;;;;;;10.05;3.00;;;;;;;12.18;79.27;102865.13;4967403;28;20019;-81
2022/07/08 03:10:38;;;;;;;7.82;3.03;;;;;;;12.12;79.30;102866.16;4959921;28;20039;-82
2022/07/08 03:13:03;;;;;;;8.38;2.90;;;;;;;12.13;79.65;102872.38;4964366;28;20334;-81
2022/07/08 03:15:28;;;;;;;8.88;3.42;;;;;;;12.12;79.69;102871.50;4965252;28;20058;-81
2022/07/08 03:17:53;;;;;;;8.20;2.70;;;;;;;12.08;79.75;102869.84;4964901;28;20075;-81
2022/07/08 03:20:19;;;;;;;11.10;3.15;;;;;;;12.11;79.92;102867.06;4967403;28;20027;-81
2022/07/08 03:22:45;;;;;;;9.45;3.33;;;;;;;12.11;80.12;102866.19;4967544;28;20122;-82
2022/07/08 03:25:10;;;;;;;10.85;3.30;;;;;;;12.08;80.19;102868.94;4983178;28;20034;-82
2022/07/08 03:27:37;;;;;;;10.27;3.10;;;;;;;12.06;80.28;102868.97;4965252;28;20512;-82
2022/07/08 03:30:05;;;;;;;9.50;2.78;;;;;;;12.03;80.46;102866.38;4966044;28;20085;-81
2022/07/08 03:32:31;;;;;;;8.48;3.45;;;;;;;11.98;80.58;102862.06;4963277;28;20474;-81
2022/07/08 03:34:56;;;;;;;8.40;3.40;;;;;;;11.97;80.76;102869.22;4967054;28;20099;-81
2022/07/08 03:37:22;;;;;;;13.18;3.13;;;;;;;11.92;80.63;102869.31;4977153;28;20054;-81
2022/07/08 03:39:48;;;;;;;11.80;2.97;;;;;;;11.93;80.65;102865.72;4959574;28;20031;-81
2022/07/08 03:42:13;;;;;;;7.15;2.92;;;;;;;11.93;81.15;102867.53;4955521;28;20027;-81
2022/07/08 03:44:38;;;;;;;10.85;3.28;;;;;;;11.93;80.95;102868.41;4958565;28;20057;-81
2022/07/08 03:47:04;;;;;;;10.35;2.80;;;;;;;11.93;80.89;102879.06;4955942;28;20474;-82
2022/07/08 03:49:29;;;;;;;9.55;3.05;;;;;;;11.91;80.97;102877.34;4972902;28;20038;-81
2022/07/08 03:51:54;;;;;;;7.93;3.38;;;;;;;11.92;81.23;102872.00;4955611;28;20054;-81
2022/07/08 03:54:20;;;;;;;10.73;2.95;;;;;;;11.89;81.25;102869.38;4956490;28;20701;-81
2022/07/08 03:56:45;;;;;;;16.35;3.38;;;;;;;11.84;81.47;102871.31;4961599;28;20073;-82
2022/07/08 03:59:10;;;;;;;12.60;3.20;;;;;;;11.80;81.86;102874.91;4953981;28;20477;-81
2022/07/08 04:01:36;;;;;;;9.38;3.35;;;;;;;11.82;81.62;102886.41;4957157;28;20050;-81
2022/07/08 04:04:01;;;;;;;8.43;3.13;;;;;;;11.85;81.44;102883.72;4956924;28;20114;-81
2022/07/08 04:06:27;;;;;;;11.18;3.25;;;;;;;11.84;81.93;102875.75;4957176;28;20051;-81
2022/07/08 04:08:52;;;;;;;10.10;2.75;;;;;;;11.83;81.87;102873.97;4957664;28;20039;-81
2022/07/08 04:11:17;;;;;;;9.77;3.08;;;;;;;11.85;81.42;102878.38;4955851;28;20026;-81
2022/07/08 04:13:42;;;;;;;8.35;2.97;;;;;;;11.85;81.64;102878.38;4966601;28;20035;-81
2022/07/08 04:16:12;;;;;;;11.20;3.58;;;;;;;11.88;81.89;102874.78;4966917;28;20023;-82
2022/07/08 04:18:38;;;;;;;7.55;3.03;;;;;;;11.86;81.88;102869.44;4964704;28;20082;-82
2022/07/08 04:21:03;;;;;;;8.32;3.20;;;;;;;11.92;81.47;102877.34;4968852;28;20030;-82
2022/07/08 04:23:29;;;;;;;12.93;3.38;;;;;;;11.96;81.56;102881.69;4970701;28;20098;-82
2022/07/08 04:25:54;;;;;;;9.05;3.47;;;;;;;11.99;81.37;102885.16;4967877;28;20019;-81
2022/07/08 04:28:19;;;;;;;8.85;2.90;;;;;;;12.01;81.75;102878.03;4968785;28;20022;-81
2022/07/08 04:30:45;;;;;;;8.95;3.17;;;;;;;12.03;81.30;102871.72;4968108;28;20030;-82
2022/07/08 04:33:10;;;;;;;8.55;3.22;;;;;;;12.03;81.29;102873.50;4969851;28;20034;-82
2022/07/08 04:35:36;;;;;;;6.53;3.10;;;;;;;12.09;81.29;102873.38;4969525;28;20469;-82
2022/07/08 04:38:02;;;;;;;10.20;3.67;;;;;;;12.11;81.35;102880.41;4984982;28;20034;-82
2022/07/08 04:40:29;;;;;;;8.75;3.42;;;;;;;12.16;81.04;102885.63;4971393;28;20033;-82
2022/07/08 04:42:54;;;;;;;8.95;4.03;;;;;;;12.19;80.80;102894.44;4965603;28;20053;-82
2022/07/08 04:45:20;;;;;;;11.90;4.00;;;;;;;12.23;80.61;102902.38;4971429;28;20065;-81
2022/07/08 04:47:46;;;;;;;13.25;4.55;;;;;;;12.29;80.74;102899.53;4965556;28;20026;-82
2022/07/08 04:50:11;;;;;;;10.00;3.67;;;;;;;12.29;80.78;102894.22;4970073;28;20109;-82
2022/07/08 04:52:37;;;;;;;9.93;3.70;;;;;;;12.38;80.71;102913.56;4970202;28;20539;-82
2022/07/08 04:55:02;;;;;;;7.07;3.65;;;;;;;12.44;80.56;102909.84;4983341;28;20105;-82
2022/07/08 04:57:32;;;;;;;8.23;3.72;;;;;;;12.52;80.54;102910.53;4968770;28;20034;-82
2022/07/08 04:59:57;;;;;;;7.43;3.58;;;;;;;12.58;79.88;102907.72;4966809;28;20059;-82
2022/07/08 05:02:23;;;;;;;12.02;3.47;;;;;;;12.64;79.38;102906.66;4963023;28;20053;-82
2022/07/08 05:04:48;;;;;;;7.82;3.47;;;;;;;12.75;78.94;102915.28;4967202;28;20388;-82
2022/07/08 05:07:13;;;;;;;9.75;3.78;;;;;;;12.82;79.18;102916.84;4967470;28;20027;-82
2022/07/08 05:09:38;;;;;;;9.75;3.80;;;;;;;12.89;78.76;102918.44;4970005;28;20058;-82
2022/07/08 05:12:04;;;;;;;9.52;4.13;;;;;;;12.97;77.95;102920.91;4989766;28;20046;-82
2022/07/08 05:14:29;;;;;;;10.38;3.72;;;;;;;13.03;77.44;102912.69;4992174;28;20107;-82
2022/07/08 05:16:55;;;;;;;15.45;3.80;;;;;;;13.08;77.58;102912.56;4990297;28;20047;-81
2022/07/08 05:19:20;;;;;;;11.07;4.00;;;;;;;13.18;77.32;102919.41;4994097;28;20181;-80
2022/07/08 05:21:45;;;;;;;15.40;4.10;;;;;;;13.25;76.72;102920.13;4990338;28;20054;-81
2022/07/08 05:24:11;;;;;;;7.80;3.55;;;;;;;13.32;76.76;102919.91;4993749;28;20069;-81
2022/07/08 05:26:36;;;;;;;9.07;3.60;;;;;;;13.39;76.81;102924.16;4976267;28;20042;-81
2022/07/08 05:29:02;;;;;;;9.38;3.17;;;;;;;13.50;76.22;102928.31;4991164;28;20054;-81
2022/07/08 05:31:28;;;;;;;8.82;3.30;;;;;;;13.56;75.98;102926.34;4974095;28;20058;-81
2022/07/08 05:33:53;;;;;;;7.82;2.95;;;;;;;13.68;75.70;102923.28;4972748;28;20030;-81
2022/07/08 05:36:18;;;;;;;9.23;3.35;;;;;;;13.76;75.00;102932.91;4972319;28;20140;-81
2022/07/08 05:38:44;;;;;;;10.18;3.35;;;;;;;13.81;74.85;102926.47;4969202;28;20110;-81
2022/07/08 05:41:09;;;;;;;5.50;2.80;;;;;;;13.93;74.44;102936.78;4970573;28;20043;-81
2022/07/08 05:43:34;;;;;;;10.65;3.10;;;;;;;14.02;74.13;102937.41;4970097;28;20436;-81
2022/07/08 05:46:00;;;;;;;7.82;2.90;;;;;;;14.11;73.23;102939.78;4967169;28;20057;-82
2022/07/08 05:48:25;;;;;;;10.57;2.85;;;;;;;14.20;73.16;102942.16;4969555;28;20046;-82
2022/07/08 05:50:50;;;;;;;9.38;2.92;;;;;;;14.36;72.46;102940.75;4968461;28;20051;-81
2022/07/08 05:53:16;;;;;;;9.63;2.88;;;;;;;14.51;71.62;102946.56;4968278;28;20031;-81
2022/07/08 05:55:45;;;;;;;11.57;2.78;;;;;;;14.64;71.80;102951.44;4963149;28;20035;-81
2022/07/08 05:58:10;;;;;;;6.97;2.67;;;;;;;14.75;71.11;102955.53;4962704;28;20038;-81
2022/07/08 06:00:36;;;;;;;9.18;3.00;;;;;;;14.84;71.09;102955.22;4967428;28;20038;-81
2022/07/08 06:03:05;;;;;;;11.48;2.90;;;;;;;14.94;70.14;102953.97;4971016;28;20026;-81
2022/07/08 06:05:33;;;;;;;10.50;2.60;;;;;;;15.05;69.34;102956.25;4968887;28;20242;-82
2022/07/08 06:07:58;;;;;;;9.60;2.55;;;;;;;15.20;69.03;102961.06;4969527;28;20808;-82
2022/07/08 06:10:26;;;;;;;8.30;2.20;;;;;;;15.42;68.55;102971.88;4970573;28;20117;-82
2022/07/08 06:12:51;;;;;;;9.40;2.35;;;;;;;15.50;67.38;102958.16;4966163;28;20030;-81
2022/07/08 06:15:17;;;;;;;8.77;2.67;;;;;;;15.64;66.94;102959.44;4962021;28;20038;-82
2022/07/08 06:17:42;;;;;;;9.07;2.22;;;;;;;15.81;66.20;102963.28;4969666;28;20038;-82
2022/07/08 06:20:08;;;;;;;8.38;2.22;;;;;;;16.01;65.45;102960.69;4974209;28;20022;-82
2022/07/08 06:22:34;;;;;;;12.05;2.50;;;;;;;16.12;64.67;102966.47;4966923;28;20110;-82
2022/07/08 06:25:00;;;;;;;9.18;1.90;;;;;;;16.32;65.16;102962.97;4963957;28;20119;-81
2022/07/08 06:27:26;;;;;;;8.40;2.72;;;;;;;16.40;64.01;102957.28;4967343;28;20034;-82
2022/07/08 06:29:51;;;;;;;8.45;2.30;;;;;;;16.62;63.65;102957.25;4966397;28;20038;-82
2022/07/08 06:32:16;;;;;;;13.05;3.78;;;;;;;16.79;64.27;102949.34;4965211;28;20485;-82
2022/07/08 06:34:43;;;;;;;9.98;2.30;;;;;;;16.85;62.44;102964.38;4964160;28;20546;-82
2022/07/08 06:37:09;;;;;;;10.60;2.20;;;;;;;17.02;62.37;102958.25;4966465;28;20082;-81
2022/07/08 06:39:34;;;;;;;7.72;1.90;;;;;;;17.06;60.10;102954.50;4972375;28;20045;-81
2022/07/08 06:41:59;;;;;;;6.43;1.80;;;;;;;17.27;61.15;102958.91;4971967;28;20076;-82
2022/07/08 06:44:24;;;;;;;9.73;2.33;;;;;;;17.39;61.24;102961.03;4966309;28;20042;-82
2022/07/08 06:46:50;;;;;;;12.80;2.08;;;;;;;17.50;60.30;102967.72;4972336;28;20027;-82
2022/07/08 06:49:15;;;;;;;8.25;2.28;;;;;;;17.63;59.13;102961.69;4976014;28;20035;-82
2022/07/08 06:51:40;;;;;;;12.20;2.10;;;;;;;17.59;58.70;102969.97;4970523;28;20630;-82
2022/07/08 06:56:50;;;;;;;8.60;2.10;;;;;;;17.77;58.62;102971.84;4968811;28;20400;-81
2022/07/08 06:59:15;;;;;;;5.63;2.40;;;;;;;17.99;59.75;102974.38;4968647;28;20030;-82
2022/07/08 07:01:40;;;;;;;8.57;2.25;;;;;;;18.05;57.94;102975.91;4968786;28;20033;-81
2022/07/08 07:04:06;;;;;;;7.80;2.15;;;;;;;18.14;57.81;102970.97;4964477;28;20035;-81
2022/07/08 07:06:31;;;;;;;7.00;1.90;;;;;;;18.14;57.58;102967.34;4966188;28;20481;-81
2022/07/08 07:08:56;;;;;;;8.70;2.00;;;;;;;18.20;56.64;102969.78;4967488;28;20070;-81
2022/07/08 07:11:21;;;;;;;9.55;1.90;;;;;;;18.42;57.22;102978.53;4967296;28;20042;-81
2022/07/08 07:13:47;;;;;;;9.20;2.58;;;;;;;18.48;56.16;102981.88;4968369;28;20034;-81
2022/07/08 07:16:13;;;;;;;8.40;2.00;;;;;;;18.47;57.10;102972.91;4968830;28;20033;-80
2022/07/08 07:18:38;;;;;;;7.63;2.05;;;;;;;18.45;56.29;102977.50;4972234;28;20030;-80
2022/07/08 07:21:04;;;;;;;14.88;6.53;;;;;;;18.50;57.29;102977.28;4972432;28;20090;-80
2022/07/08 07:23:29;;;;;;;10.30;2.85;;;;;;;18.65;56.62;102981.91;4964572;28;20061;-81
2022/07/08 07:25:55;;;;;;;4.18;1.85;;;;;;;18.75;55.79;102980.50;4967203;28;20031;-81
2022/07/08 07:28:20;;;;;;;7.93;2.08;;;;;;;19.00;56.05;102976.53;4972312;28;20086;-81
2022/07/08 07:30:45;;;;;;;9.35;2.22;;;;;;;19.07;55.33;102970.72;4967582;28;20034;-81
2022/07/08 07:33:11;;;;;;;7.47;1.77;;;;;;;19.21;54.88;102983.47;4964053;28;20026;-81
2022/07/08 07:35:37;;;;;;;8.95;2.05;;;;;;;19.53;53.63;102986.28;4969618;28;20077;-81
2022/07/08 07:38:02;;;;;;;6.82;1.60;;;;;;;19.84;52.78;102978.22;4969457;28;20031;-81
2022/07/08 07:40:28;;;;;;;7.05;2.30;;;;;;;20.23;51.60;102986.84;4970529;28;20027;-81
2022/07/08 07:42:53;;;;;;;7.05;1.90;;;;;;;20.46;50.90;102967.47;4963939;28;20214;-82
2022/07/08 07:45:18;;;;;;;6.00;1.92;;;;;;;20.88;50.01;102974.88;4968968;28;20361;-81
2022/07/08 07:47:44;;;;;;;10.90;2.20;;;;;;;21.30;48.54;102973.19;4970357;28;20089;-81
2022/07/08 07:50:12;;;;;;;6.43;1.70;;;;;;;21.87;47.84;102977.75;4966777;28;20031;-81
2022/07/08 07:52:37;;;;;;;5.40;1.80;;;;;;;22.41;46.66;102964.22;4964407;28;20039;-81
2022/07/08 07:55:03;;;;;;;6.22;1.60;;;;;;;22.86;45.25;102968.31;4966739;28;20429;-80
2022/07/08 07:57:28;;;;;;;5.28;1.48;;;;;;;23.29;44.84;102965.34;4990137;28;20432;-81
2022/07/08 07:59:53;;;;;;;7.90;1.98;;;;;;;23.55;41.99;102968.03;4972316;28;20440;-81
2022/07/08 08:02:19;;;;;;;5.72;1.75;;;;;;;24.02;41.01;102972.72;4971113;28;20019;-81
2022/07/08 08:04:45;;;;;;;4.63;2.00;;;;;;;24.46;39.66;102973.13;4967640;28;20034;-81
2022/07/08 08:07:10;;;;;;;5.22;1.50;;;;;;;24.63;39.30;102966.38;4973856;28;20034;-81
2022/07/08 08:09:36;;;;;;;5.07;1.45;;;;;;;24.91;38.87;102962.34;4966880;28;20206;-81
2022/07/08 08:12:01;;;;;;;7.60;2.40;;;;;;;25.38;38.45;102974.13;4972280;28;20022;-82
2022/07/08 08:14:27;;;;;;;6.82;1.80;;;;;;;25.44;37.21;102973.59;4971478;28;20030;-82
2022/07/08 08:16:52;;;;;;;4.93;1.40;;;;;;;25.66;36.78;102968.13;4970352;28;20034;-82
2022/07/08 08:19:17;;;;;;;11.48;2.17;;;;;;;25.84;37.66;102974.00;4974823;28;20034;-81
2022/07/08 08:21:43;;;;;;;4.60;1.38;;;;;;;26.08;35.89;102981.97;4973997;28;20039;-82
2022/07/08 08:24:08;;;;;;;7.20;1.60;;;;;;;26.27;36.00;102979.47;4972254;28;20499;-82
2022/07/08 08:26:33;;;;;;;7.95;1.75;;;;;;;26.76;36.75;102980.78;4985841;28;20073;-81
2022/07/08 08:28:59;;;;;;;9.00;1.95;;;;;;;27.36;35.25;102981.00;4994073;28;20030;-81
2022/07/08 08:31:25;;;;;;;5.03;1.40;;;;;;;27.59;33.94;102983.53;4985855;28;20042;-81
2022/07/08 08:33:50;;;;;;;5.63;1.52;;;;;;;27.69;32.72;102979.84;4989870;28;20121;-80
2022/07/08 08:36:15;;;;;;;4.88;1.55;;;;;;;27.79;32.89;102974.44;4974103;28;20026;-82
2022/07/08 08:38:41;;;;;;;5.47;1.40;;;;;;;28.39;32.44;102988.13;4968099;28;20070;-81
2022/07/08 08:41:07;;;;;;;6.75;1.50;;;;;;;28.88;31.75;102983.47;4979400;28;20090;-82
2022/07/08 08:43:32;;;;;;;13.15;1.67;;;;;;;29.29;31.45;102985.84;4976817;28;20027;-81
2022/07/08 08:45:59;;;;;;;7.35;1.70;;;;;;;29.76;30.33;102988.59;4975061;28;20026;-81
2022/07/08 08:48:25;;;;;;;4.15;1.33;;;;;;;29.51;30.45;102984.63;4969643;28;20396;-77
2022/07/08 08:50:53;;;;;;;5.07;1.27;;;;;;;29.60;28.93;102980.16;4977194;28;20057;-79
2022/07/08 08:53:23;;;;;;;4.72;1.40;;;;;;;29.97;30.32;102970.94;4974320;28;20023;-80
2022/07/08 08:55:51;;;;;;;6.03;1.38;;;;;;;30.55;28.50;102973.28;4975922;28;20050;-82
2022/07/08 08:58:16;;;;;;;4.47;1.60;;;;;;;30.91;27.93;102971.38;4974083;28;20058;-81
2022/07/08 09:00:42;;;;;;;6.90;1.60;;;;;;;31.19;26.95;102980.34;4972515;28;20035;-83
2022/07/08 09:03:08;;;;;;;6.60;1.50;;;;;;;31.33;26.57;102967.03;4987133;28;20027;-83
2022/07/08 09:05:33;;;;;;;5.40;1.38;;;;;;;31.83;25.63;102969.81;4970445;28;20033;-80
2022/07/08 09:07:58;;;;;;;5.90;1.40;;;;;;;32.33;25.45;102968.06;4972787;28;20027;-81
2022/07/08 09:10:24;;;;;;;4.45;1.40;;;;;;;32.42;24.85;102961.53;4965506;28;20451;-81
2022/07/08 09:13:06;;;;;;;8.27;1.90;;;;;;;32.86;26.68;102967.56;4967204;28;20061;-83
2022/07/08 09:15:34;;;;;;;6.57;1.70;;;;;;;32.75;24.55;102967.91;4968131;28;20090;-84
2022/07/08 09:18:01;;;;;;;7.13;1.45;;;;;;;33.24;24.98;102961.50;4971027;28;20025;-82
2022/07/08 09:20:27;;;;;;;6.25;1.35;;;;;;;33.37;24.99;102964.53;4974528;28;20027;-82
2022/07/08 09:22:57;;;;;;;5.78;1.30;;;;;;;33.79;24.76;102957.81;4969934;28;20496;-81
2022/07/08 09:25:22;;;;;;;4.22;1.50;;;;;;;33.81;23.62;102962.09;4970088;28;20027;-82
2022/07/08 09:27:48;;;;;;;5.13;1.58;;;;;;;33.94;23.09;102965.16;4970387;28;20491;-81
2022/07/08 09:30:15;;;;;;;7.97;1.58;;;;;;;33.49;23.47;102968.66;4965555;28;20038;-82
2022/07/08 09:32:56;;;;;;;4.70;1.20;;;;;;;33.73;24.09;102970.44;4965395;28;20030;-81
2022/07/08 09:35:21;;;;;;;7.68;1.50;;;;;;;33.28;23.73;102963.72;4965716;28;20027;-81
2022/07/08 09:37:50;;;;;;;5.47;1.33;;;;;;;32.37;24.36;102974.94;4967956;28;20080;-81
2022/07/08 09:40:18;;;;;;;4.53;1.40;;;;;;;32.48;25.13;102971.88;4969974;28;20105;-80
2022/07/08 09:42:43;;;;;;;5.38;1.73;;;;;;;32.99;24.18;102953.28;4968657;28;20026;-81
2022/07/08 09:45:09;;;;;;;4.53;1.50;;;;;;;33.04;25.07;102961.88;4956094;28;20023;-81
2022/07/08 09:47:34;;;;;;;5.00;1.60;;;;;;;33.09;24.96;102956.69;4982858;28;20298;-81
2022/07/08 09:49:59;;;;;;;4.30;1.58;;;;;;;33.44;23.75;102960.00;4968040;28;20539;-81
2022/07/08 09:52:25;;;;;;;4.27;1.10;;;;;;;33.79;23.96;102968.88;4966388;28;20554;-80
2022/07/08 09:55:03;;;;;;;6.32;1.50;;;;;;;34.23;24.01;102969.13;4968069;28;20301;-80
2022/07/08 09:57:29;;;;;;;117.03;11.38;;;;;;;33.60;23.33;102962.72;4966837;28;20093;-81
2022/07/08 09:59:56;;;;;;;5.15;1.55;;;;;;;33.51;22.96;102961.06;4969700;28;20042;-81
2022/07/08 10:02:21;;;;;;;5.63;1.70;;;;;;;32.81;24.79;102963.59;4968067;28;20559;-80
2022/07/08 10:04:51;;;;;;;8.43;1.67;;;;;;;33.21;24.15;102958.03;4958931;28;20126;-81
2022/07/08 10:07:16;;;;;;;5.80;1.30;;;;;;;33.50;23.75;102961.25;4969568;28;20058;-80
2022/07/08 10:09:42;;;;;;;4.50;1.55;;;;;;;33.32;24.22;102965.06;4965902;28;20037;-81
2022/07/08 10:12:12;;;;;;;5.60;1.30;;;;;;;33.05;25.37;102966.34;4964176;28;20027;-82
2022/07/08 10:14:37;;;;;;;4.03;1.77;;;;;;;32.96;25.74;102971.03;4963684;28;20027;-81
2022/07/08 10:17:07;;;;;;;4.28;1.38;;;;;;;33.17;25.16;102967.69;4968569;28;20023;-81
2022/07/08 10:19:38;;;;;;;8.38;2.40;;;;;;;32.93;24.38;102970.50;4969574;28;20042;-81
2022/07/08 10:22:06;;;;;;;6.18;2.08;;;;;;;32.08;25.33;102968.03;4966342;28;20097;-85
2022/07/08 10:24:37;;;;;;;4.85;1.42;;;;;;;31.97;25.86;102971.94;4965609;28;20089;-81
2022/07/08 10:27:02;;;;;;;5.20;1.40;;;;;;;31.84;26.00;102974.31;4952797;28;20373;-81
2022/07/08 10:29:29;;;;;;;6.38;2.30;;;;;;;31.99;25.98;102974.56;4964157;28;20023;-81
2022/07/08 10:31:55;;;;;;;6.93;2.95;;;;;;;33.69;24.47;102961.69;4955943;28;20030;-81
2022/07/08 10:34:22;;;;;;;13.25;2.90;;;;;;;36.69;22.17;102967.91;4968972;28;20057;-81
2022/07/08 10:36:53;;;;;;;5.18;1.33;;;;;;;38.72;20.47;102955.31;4964418;28;20098;-82
2022/07/08 10:39:29;;;;;;;8.10;1.80;;;;;;;39.98;18.73;102957.75;4968448;28;20029;-82
2022/07/08 10:42:02;;;;;;;8.20;1.55;;;;;;;40.14;18.35;102961.97;4965495;28;20140;-83
2022/07/08 10:44:43;;;;;;;5.75;1.33;;;;;;;40.46;19.08;102965.56;4982832;28;20041;-82
2022/07/08 10:47:24;;;;;;;3.83;1.30;;;;;;;39.62;18.08;102958.34;4961069;28;20041;-83
2022/07/08 10:49:49;;;;;;;5.80;1.70;;;;;;;39.03;18.11;102951.88;4962054;28;20031;-82
2022/07/08 10:52:16;;;;;;;12.38;1.73;;;;;;;39.35;19.23;102956.53;4965760;28;20440;-82
2022/07/08 10:54:42;;;;;;;5.22;1.70;;;;;;;39.00;18.47;102966.22;4968843;28;20043;-87
2022/07/08 10:57:24;;;;;;;6.43;1.80;;;;;;;38.76;19.24;102964.97;4969605;28;20046;-86
2022/07/08 11:00:09;;;;;;;5.28;1.38;;;;;;;38.88;19.72;102949.34;4966368;28;20492;-91
2022/07/08 11:02:40;;;;;;;4.80;1.52;;;;;;;37.93;20.05;102954.16;4967281;28;20117;-87
2022/07/08 11:05:06;;;;;;;6.53;1.67;;;;;;;37.81;19.90;102955.78;4969983;28;20023;-87
2022/07/08 11:07:32;;;;;;;6.15;1.50;;;;;;;36.62;20.33;102967.00;4971225;28;20511;-86
2022/07/08 11:10:09;;;;;;;6.70;1.65;;;;;;;33.61;23.40;102963.59;4968765;28;20031;-86
2022/07/08 11:12:36;;;;;;;3.72;1.25;;;;;;;31.54;26.24;102966.59;4961143;28;20033;-84
2022/07/08 11:15:06;;;;;;;5.00;1.65;;;;;;;31.16;27.85;102958.66;4965175;28;20027;-85
2022/07/08 11:17:34;;;;;;;4.18;1.40;;;;;;;32.36;26.28;102963.06;4963601;28;20501;-84
2022/07/08 11:20:01;;;;;;;6.55;1.50;;;;;;;34.61;23.79;102956.25;4964080;28;20058;-84
2022/07/08 11:22:31;;;;;;;3.70;1.20;;;;;;;36.69;21.06;102955.97;4967368;28;20113;-83